Time;durP1;ratioP1;P1;durP2;ratioP2;P2;SDS_P1;SDS_P2;PMS_P1;PMS_P2;Temp;Humidity;BMP_temperature;BMP_pressure;BME280_temperature;BME280_humidity;BME280_pressure;Samples;Min_cycle;Max_cycle;Signal;HPM_P1;HPM_P2
2022/07/21 00:00:28;;;;;;;5.03;2.98;;;20.80;68.80;;;;;;1945331;74;21097;-65
2022/07/21 00:02:58;;;;;;;3.15;2.67;;;20.80;68.90;;;;;;1945051;73;21019;-65
2022/07/21 00:05:28;;;;;;;2.83;2.62;;;20.80;68.70;;;;;;1945115;73;21096;-65
2022/07/21 00:07:57;;;;;;;3.60;2.75;;;20.70;69.00;;;;;;1945027;73;21027;-65
2022/07/21 00:10:27;;;;;;;3.20;2.90;;;20.80;69.10;;;;;;1945055;73;21023;-65
2022/07/21 00:12:57;;;;;;;2.95;2.40;;;20.70;69.20;;;;;;1945067;73;21019;-65
2022/07/21 00:15:28;;;;;;;3.10;2.58;;;20.70;69.60;;;;;;1945036;73;21035;-65
2022/07/21 00:17:58;;;;;;;3.02;2.40;;;20.70;70.00;;;;;;1945039;74;21128;-65
2022/07/21 00:20:30;;;;;;;5.37;2.50;;;20.70;69.80;;;;;;1945163;73;21010;-65
2022/07/21 00:23:00;;;;;;;4.33;2.90;;;20.80;70.10;;;;;;1945217;73;21035;-65
2022/07/21 00:25:30;;;;;;;3.08;2.27;;;20.80;70.10;;;;;;1945031;74;21015;-65
2022/07/21 00:28:00;;;;;;;3.27;2.35;;;20.90;70.10;;;;;;1945071;74;21023;-65
2022/07/21 00:30:29;;;;;;;3.98;2.50;;;20.90;70.60;;;;;;1945053;74;21018;-65
2022/07/21 00:32:59;;;;;;;4.15;2.52;;;21.00;70.60;;;;;;1945045;74;21019;-65
2022/07/21 00:35:28;;;;;;;5.12;2.30;;;21.00;70.30;;;;;;1945028;74;21023;-65
2022/07/21 00:37:58;;;;;;;2.42;2.22;;;21.00;70.10;;;;;;1944984;74;21019;-65
2022/07/21 00:40:28;;;;;;;3.65;2.58;;;21.00;70.40;;;;;;1945065;73;21063;-65
2022/07/21 00:42:58;;;;;;;2.95;2.65;;;20.90;70.30;;;;;;1945110;74;21108;-65
2022/07/21 00:45:28;;;;;;;4.90;2.75;;;21.00;70.00;;;;;;1945011;74;21019;-65
2022/07/21 00:47:57;;;;;;;3.55;2.98;;;20.90;69.60;;;;;;1945014;73;21144;-65
2022/07/21 00:50:27;;;;;;;3.20;2.87;;;20.80;69.90;;;;;;1945131;74;21031;-65
2022/07/21 00:52:56;;;;;;;4.90;2.60;;;20.70;70.40;;;;;;1945010;74;21015;-65
2022/07/21 00:55:26;;;;;;;3.30;2.45;;;20.70;70.70;;;;;;1945011;74;21073;-65
2022/07/21 00:57:56;;;;;;;3.65;2.50;;;20.70;70.70;;;;;;1945127;74;21023;-65
2022/07/21 01:00:28;;;;;;;5.05;2.72;;;20.80;70.60;;;;;;1944992;74;20999;-65
2022/07/21 01:02:58;;;;;;;3.80;2.60;;;20.80;70.70;;;;;;1944988;73;21030;-65
2022/07/21 01:05:28;;;;;;;2.65;2.35;;;20.90;70.60;;;;;;1944980;74;21096;-65
2022/07/21 01:08:02;;;;;;;4.65;2.72;;;21.00;70.00;;;;;;1944981;74;21088;-65
2022/07/21 01:10:29;;;;;;;4.92;2.80;;;21.00;69.90;;;;;;1943709;73;21088;-65
2022/07/21 01:13:00;;;;;;;3.20;2.60;;;20.90;70.00;;;;;;1945219;74;21120;-65
2022/07/21 01:15:30;;;;;;;3.72;2.65;;;20.70;70.20;;;;;;1945342;74;21129;-65
2022/07/21 01:17:59;;;;;;;4.45;2.62;;;20.60;70.90;;;;;;1945221;74;21116;-65
2022/07/21 01:20:33;;;;;;;4.62;2.70;;;20.40;70.50;;;;;;1945241;74;21084;-65
2022/07/21 01:23:05;;;;;;;3.37;2.45;;;20.40;71.00;;;;;;1885155;74;21140;-66
2022/07/21 01:25:35;;;;;;;4.28;2.52;;;20.30;71.50;;;;;;1891761;74;21030;-65
2022/07/21 01:28:05;;;;;;;2.70;2.47;;;20.30;71.60;;;;;;1891762;75;21014;-65
2022/07/21 01:30:34;;;;;;;3.83;2.50;;;20.30;71.40;;;;;;1891898;74;21139;-65
2022/07/21 01:33:04;;;;;;;6.08;2.80;;;20.30;71.30;;;;;;1891704;75;21123;-65
2022/07/21 01:35:33;;;;;;;5.33;3.10;;;20.20;71.40;;;;;;1891724;76;21096;-65
2022/07/21 01:38:03;;;;;;;2.70;2.12;;;20.20;72.00;;;;;;1891722;75;21022;-65
2022/07/21 01:43:20;;;;;;;3.83;2.22;;;20.40;72.70;;;;;;1891842;75;21046;-66
2022/07/21 01:45:50;;;;;;;3.20;2.05;;;20.50;72.10;;;;;;1891627;75;21144;-66
2022/07/21 01:48:20;;;;;;;3.20;2.20;;;20.70;71.70;;;;;;1891657;76;21046;-66
2022/07/21 01:50:50;;;;;;;3.67;2.22;;;20.80;71.50;;;;;;1891652;75;21033;-66
2022/07/21 01:53:19;;;;;;;3.40;3.10;;;20.90;71.20;;;;;;1891635;75;21075;-66
2022/07/21 01:55:49;;;;;;;2.55;2.35;;;21.00;71.00;;;;;;1891721;76;21038;-65
2022/07/21 01:58:18;;;;;;;3.83;2.92;;;21.10;70.50;;;;;;1891731;76;21129;-65
2022/07/21 02:00:48;;;;;;;2.40;2.20;;;21.20;70.30;;;;;;1891663;76;21026;-65
2022/07/21 02:03:17;;;;;;;2.95;2.47;;;21.30;70.30;;;;;;1891603;75;21062;-65
2022/07/21 02:05:47;;;;;;;7.33;2.55;;;21.30;70.00;;;;;;1891588;75;21104;-65
2022/07/21 02:08:16;;;;;;;3.92;3.02;;;21.40;69.90;;;;;;1891683;74;21042;-65
2022/07/21 02:10:46;;;;;;;3.35;2.65;;;21.40;69.70;;;;;;1891601;75;21033;-66
2022/07/21 02:13:15;;;;;;;3.83;2.50;;;21.50;69.70;;;;;;1891607;76;21022;-65
2022/07/21 02:15:45;;;;;;;4.15;2.62;;;21.50;69.60;;;;;;1891596;74;21100;-65
2022/07/21 02:18:14;;;;;;;8.50;2.98;;;21.60;69.50;;;;;;1891739;76;21006;-65
2022/07/21 02:20:44;;;;;;;6.22;3.30;;;21.60;69.30;;;;;;1891695;75;21210;-65
2022/07/21 02:23:15;;;;;;;3.92;2.70;;;21.70;69.40;;;;;;1884255;75;21089;-66
2022/07/21 02:25:44;;;;;;;4.50;2.75;;;21.70;69.50;;;;;;1882056;75;21156;-66
2022/07/21 02:28:14;;;;;;;6.40;2.60;;;21.70;69.30;;;;;;1882149;76;21128;-66
2022/07/21 02:30:43;;;;;;;5.30;2.90;;;21.80;69.10;;;;;;1882095;75;21015;-66
2022/07/21 02:33:13;;;;;;;4.20;2.90;;;21.80;69.10;;;;;;1882177;76;21076;-65
2022/07/21 02:35:42;;;;;;;4.35;2.70;;;21.80;69.00;;;;;;1882024;75;21042;-66
2022/07/21 02:38:12;;;;;;;5.85;2.80;;;21.80;68.90;;;;;;1882158;76;21065;-66
2022/07/21 02:40:42;;;;;;;5.08;2.30;;;21.90;69.20;;;;;;1882090;76;21096;-66
2022/07/21 02:43:12;;;;;;;5.22;2.30;;;21.90;69.10;;;;;;1882160;75;21038;-66
2022/07/21 02:45:43;;;;;;;3.62;2.58;;;21.90;69.10;;;;;;1882074;76;21038;-66
2022/07/21 02:48:13;;;;;;;3.52;2.98;;;22.00;69.10;;;;;;1882035;75;21484;-66
2022/07/21 02:50:44;;;;;;;3.62;2.77;;;22.10;68.90;;;;;;1882048;76;20999;-65
2022/07/21 02:53:19;;;;;;;4.92;2.90;;;22.10;69.10;;;;;;1882169;76;21160;-66
2022/07/21 02:55:49;;;;;;;4.08;2.65;;;22.20;68.40;;;;;;1882175;76;21104;-66
2022/07/21 02:58:21;;;;;;;5.12;3.20;;;22.20;68.90;;;;;;1882049;75;21112;-66
2022/07/21 03:00:53;;;;;;;4.87;2.65;;;22.20;68.90;;;;;;1882170;76;21117;-65
2022/07/21 03:03:24;;;;;;;4.97;2.80;;;22.20;69.00;;;;;;1882060;76;21112;-66
2022/07/21 03:05:57;;;;;;;7.10;2.77;;;22.20;68.90;;;;;;1882055;75;21030;-66
2022/07/21 03:08:29;;;;;;;6.10;2.70;;;22.20;69.00;;;;;;1900660;74;21452;-65
2022/07/21 03:10:58;;;;;;;4.10;2.40;;;22.10;69.20;;;;;;1904363;74;21013;-65
2022/07/21 03:13:28;;;;;;;3.77;2.90;;;22.10;69.50;;;;;;1904472;75;21132;-65
2022/07/21 03:15:57;;;;;;;5.12;2.75;;;22.10;69.80;;;;;;1904567;74;20982;-65
2022/07/21 03:18:26;;;;;;;7.10;2.85;;;22.20;70.20;;;;;;1904485;74;21013;-64
2022/07/21 03:20:57;;;;;;;5.87;2.67;;;22.20;70.40;;;;;;1904405;75;21052;-64
2022/07/21 03:23:27;;;;;;;4.60;2.42;;;22.30;70.50;;;;;;1904459;74;21087;-64
2022/07/21 03:25:56;;;;;;;7.15;3.10;;;22.50;70.80;;;;;;1904345;75;21109;-65
2022/07/21 03:28:25;;;;;;;6.58;2.58;;;22.60;70.60;;;;;;1904412;75;21029;-64
2022/07/21 03:30:56;;;;;;;5.70;2.80;;;22.70;70.50;;;;;;1904456;75;21050;-64
2022/07/21 03:33:25;;;;;;;7.25;3.65;;;22.80;70.40;;;;;;1904406;75;21021;-64
2022/07/21 03:35:54;;;;;;;5.70;2.83;;;22.80;70.30;;;;;;1904398;74;21076;-64
2022/07/21 03:38:23;;;;;;;3.52;2.50;;;22.90;70.50;;;;;;1904465;75;20998;-65
2022/07/21 03:40:53;;;;;;;6.85;2.80;;;23.00;70.50;;;;;;1904315;74;21001;-65
2022/07/21 03:43:22;;;;;;;6.60;2.90;;;23.10;70.40;;;;;;1904372;74;21103;-65
2022/07/21 03:45:52;;;;;;;4.17;3.10;;;23.10;70.30;;;;;;1904376;75;21086;-65
2022/07/21 03:48:21;;;;;;;4.58;3.02;;;23.20;70.20;;;;;;1904334;75;21021;-65
2022/07/21 03:50:56;;;;;;;4.40;3.10;;;23.30;70.10;;;;;;1904341;74;21084;-65
2022/07/21 03:53:26;;;;;;;4.53;3.22;;;23.40;70.10;;;;;;1857413;72;21176;-65
2022/07/21 03:56:02;;;;;;;6.85;3.30;;;23.40;70.00;;;;;;1921335;75;21085;-65
2022/07/21 03:58:37;;;;;;;6.83;2.67;;;23.40;70.10;;;;;;1920696;72;21135;-65
2022/07/21 04:01:06;;;;;;;3.67;2.60;;;23.50;70.10;;;;;;1921611;73;21034;-65
2022/07/21 04:03:36;;;;;;;7.45;3.27;;;23.50;70.10;;;;;;1921656;75;21018;-65
2022/07/21 04:06:10;;;;;;;5.83;2.75;;;23.60;70.20;;;;;;1921572;73;21088;-64
2022/07/21 04:08:36;;;;;;;3.87;2.60;;;23.60;70.10;;;;;;1921306;74;21049;-65
2022/07/21 04:11:06;;;;;;;6.90;3.00;;;23.70;70.10;;;;;;1921688;75;20982;-65
2022/07/21 04:13:36;;;;;;;4.33;2.55;;;23.80;70.00;;;;;;1921677;75;20998;-65
2022/07/21 04:16:06;;;;;;;6.40;2.85;;;23.90;69.90;;;;;;1921556;75;21076;-65
2022/07/21 04:18:35;;;;;;;3.20;2.90;;;23.90;69.60;;;;;;1921670;75;21014;-65
2022/07/21 04:21:05;;;;;;;4.83;3.47;;;24.00;69.50;;;;;;1921602;75;21022;-65
2022/07/21 04:23:34;;;;;;;7.50;3.10;;;24.10;69.40;;;;;;1921686;73;21068;-65
2022/07/21 04:26:04;;;;;;;5.83;3.47;;;24.10;69.30;;;;;;1921641;75;21051;-65
2022/07/21 04:28:33;;;;;;;5.25;3.22;;;24.20;69.40;;;;;;1921622;73;21061;-65
2022/07/21 04:31:03;;;;;;;9.33;5.42;;;24.30;69.40;;;;;;1921475;75;21134;-65
2022/07/21 04:33:35;;;;;;;5.62;3.30;;;24.30;69.50;;;;;;1921495;75;21068;-65
2022/07/21 04:36:06;;;;;;;10.00;3.95;;;24.40;69.60;;;;;;1918696;72;21079;-65
2022/07/21 04:38:35;;;;;;;4.08;3.67;;;24.40;69.80;;;;;;1922302;73;21078;-65
2022/07/21 04:41:04;;;;;;;13.78;4.33;;;24.40;69.80;;;;;;1922427;74;21020;-65
2022/07/21 04:43:34;;;;;;;10.63;3.83;;;24.40;69.90;;;;;;1922311;74;21102;-65
2022/07/21 04:46:03;;;;;;;7.10;3.65;;;24.50;69.90;;;;;;1922541;73;21008;-65
2022/07/21 04:48:33;;;;;;;7.20;3.90;;;24.60;69.90;;;;;;1922484;74;21012;-65
2022/07/21 04:51:02;;;;;;;7.65;4.08;;;24.70;69.90;;;;;;1922485;73;21122;-66
2022/07/21 04:53:32;;;;;;;11.00;4.12;;;24.70;69.80;;;;;;1922420;73;21020;-65
2022/07/21 04:56:01;;;;;;;7.35;3.80;;;24.80;69.90;;;;;;1922454;75;21094;-65
2022/07/21 04:58:30;;;;;;;12.05;4.22;;;24.80;69.70;;;;;;1922362;73;21110;-65
2022/07/21 05:01:00;;;;;;;12.03;4.25;;;24.80;69.70;;;;;;1922435;74;21070;-65
2022/07/21 05:17:08;;;;;;;13.93;7.35;;;25.00;69.60;;;;;;1958861;73;22090;-66
2022/07/21 05:19:37;;;;;;;7.58;4.17;;;25.70;68.30;;;;;;1918468;75;21046;-65
2022/07/21 05:22:07;;;;;;;6.58;4.92;;;25.70;68.30;;;;;;1918600;75;20998;-65
2022/07/21 05:24:36;;;;;;;5.97;3.95;;;25.70;68.10;;;;;;1881766;75;21038;-65
2022/07/21 05:27:06;;;;;;;9.90;4.45;;;25.70;67.90;;;;;;1865859;77;21011;-65
2022/07/21 05:29:35;;;;;;;8.03;3.85;;;25.80;68.00;;;;;;1865920;77;21187;-65
2022/07/21 05:32:05;;;;;;;7.17;3.55;;;25.90;67.90;;;;;;1865968;77;21101;-65
2022/07/21 05:34:34;;;;;;;7.75;4.12;;;26.00;67.50;;;;;;1865838;77;21113;-65
2022/07/21 05:37:03;;;;;;;8.60;4.30;;;26.10;67.00;;;;;;1865799;77;21039;-65
2022/07/21 05:39:33;;;;;;;4.67;3.70;;;26.10;66.60;;;;;;1865844;77;21027;-65
2022/07/21 05:42:02;;;;;;;7.80;4.17;;;26.20;66.00;;;;;;1865879;77;21055;-65
2022/07/21 05:44:32;;;;;;;7.85;3.60;;;26.20;65.80;;;;;;1865780;77;21015;-65
2022/07/21 05:47:01;;;;;;;4.83;3.40;;;26.20;65.60;;;;;;1865973;77;21146;-65
2022/07/21 05:49:30;;;;;;;6.50;3.50;;;26.30;65.10;;;;;;1865976;77;21117;-65
2022/07/21 05:52:00;;;;;;;5.95;3.85;;;26.40;65.00;;;;;;1865913;77;21195;-66
2022/07/21 05:54:29;;;;;;;7.78;4.55;;;26.40;64.80;;;;;;1865772;77;21078;-65
2022/07/21 05:56:59;;;;;;;8.88;4.45;;;26.50;64.50;;;;;;1866020;77;21043;-65
2022/07/21 05:59:28;;;;;;;4.90;3.55;;;26.60;64.70;;;;;;1865823;77;21043;-65
2022/07/21 06:01:58;;;;;;;6.83;3.90;;;26.70;64.90;;;;;;1865750;77;21039;-65
2022/07/21 06:04:27;;;;;;;4.53;3.27;;;26.70;64.90;;;;;;1865575;77;21043;-65
2022/07/21 06:06:57;;;;;;;11.97;4.65;;;26.90;64.60;;;;;;1865686;77;21039;-65
2022/07/21 06:09:26;;;;;;;6.47;3.60;;;27.00;64.50;;;;;;1865720;77;21059;-65
2022/07/21 06:11:55;;;;;;;9.80;4.22;;;27.10;63.80;;;;;;1865753;77;21112;-65
2022/07/21 06:14:25;;;;;;;4.12;3.52;;;27.10;63.10;;;;;;1865769;77;21036;-65
2022/07/21 06:16:54;;;;;;;4.30;3.52;;;27.20;62.50;;;;;;1857710;77;21129;-64
2022/07/21 06:19:24;;;;;;;8.35;4.53;;;27.30;61.60;;;;;;1905779;74;21039;-65
2022/07/21 06:21:53;;;;;;;8.70;3.42;;;27.20;61.60;;;;;;1869478;77;21023;-64
2022/07/21 06:24:23;;;;;;;4.55;3.45;;;27.30;62.20;;;;;;1905804;75;21043;-64
2022/07/21 06:26:52;;;;;;;5.92;3.50;;;27.40;61.40;;;;;;1869292;77;21030;-64
2022/07/21 06:29:23;;;;;;;7.17;3.87;;;27.40;61.40;;;;;;1905413;75;21086;-64
2022/07/21 06:31:55;;;;;;;7.77;3.77;;;27.40;60.90;;;;;;1891264;74;21184;-64
2022/07/21 06:34:24;;;;;;;9.93;3.65;;;27.50;60.90;;;;;;1953327;72;21013;-64
2022/07/21 06:36:54;;;;;;;6.25;3.75;;;27.60;60.70;;;;;;1893463;76;21528;-64
2022/07/21 06:39:23;;;;;;;10.50;4.15;;;27.50;59.70;;;;;;1893637;75;21007;-64
2022/07/21 06:41:52;;;;;;;11.15;3.47;;;27.40;59.00;;;;;;1893801;75;21023;-64
2022/07/21 06:44:24;;;;;;;10.18;3.83;;;27.10;58.80;;;;;;1893606;74;21023;-64
2022/07/21 06:46:52;;;;;;;7.33;3.55;;;27.00;59.50;;;;;;1893554;75;21469;-64
2022/07/21 06:49:21;;;;;;;4.95;3.30;;;27.00;59.20;;;;;;1893647;75;21499;-64
2022/07/21 06:51:51;;;;;;;5.15;3.22;;;27.00;58.90;;;;;;1893697;75;21105;-64
2022/07/21 06:54:20;;;;;;;5.47;3.58;;;27.10;58.90;;;;;;1893651;75;21027;-64
2022/07/21 06:56:50;;;;;;;9.70;3.70;;;27.10;58.60;;;;;;1893560;75;21049;-64
2022/07/21 06:59:19;;;;;;;5.62;3.10;;;27.10;58.90;;;;;;1893495;74;21033;-64
2022/07/21 07:01:49;;;;;;;7.22;3.35;;;27.20;58.70;;;;;;1893575;74;21004;-64
2022/07/21 07:04:18;;;;;;;9.03;3.05;;;27.30;58.40;;;;;;1893541;75;21101;-64
2022/07/21 07:06:51;;;;;;;7.22;3.10;;;27.40;58.40;;;;;;1893569;74;21036;-64
2022/07/21 07:09:18;;;;;;;7.03;3.33;;;27.40;58.60;;;;;;1893418;75;21024;-64
2022/07/21 08:33:00;;;;;;;7.10;2.90;;;24.90;65.00;;;;;;1958279;73;22187;-61
2022/07/21 08:35:29;;;;;;;7.28;3.20;;;25.50;64.20;;;;;;1917832;74;21082;-63
2022/07/21 08:38:01;;;;;;;8.73;3.25;;;24.90;64.40;;;;;;1917552;75;21163;-63
2022/07/21 08:40:33;;;;;;;6.50;3.75;;;24.50;65.10;;;;;;1917710;75;21066;-63
2022/07/21 08:43:03;;;;;;;5.37;3.40;;;24.30;66.60;;;;;;1917491;75;21106;-65
2022/07/21 08:45:32;;;;;;;5.03;3.20;;;24.20;67.10;;;;;;1917490;75;21046;-63
2022/07/21 08:48:02;;;;;;;4.40;2.98;;;24.00;67.30;;;;;;1917778;75;21019;-63
2022/07/21 08:50:33;;;;;;;5.90;3.27;;;23.90;67.50;;;;;;1917714;75;21074;-63
2022/07/21 08:53:02;;;;;;;5.47;2.92;;;23.90;67.70;;;;;;1917451;74;21538;-65
2022/07/21 08:55:34;;;;;;;5.83;2.80;;;24.00;68.40;;;;;;1917609;75;21067;-64
2022/07/21 08:58:06;;;;;;;4.33;2.98;;;24.10;68.30;;;;;;1917365;74;21105;-62
2022/07/21 09:00:37;;;;;;;4.30;3.20;;;24.10;68.30;;;;;;1917717;74;21027;-65
2022/07/21 09:03:18;;;;;;;21.02;4.30;;;24.30;68.10;;;;;;1917772;75;21035;-61
2022/07/21 09:06:02;;;;;;;6.92;3.58;;;24.50;68.40;;;;;;1917713;75;21082;-62
2022/07/21 09:08:37;;;;;;;4.72;3.72;;;24.70;68.00;;;;;;1918034;74;21034;-64
2022/07/21 09:11:15;;;;;;;10.03;3.85;;;24.80;67.80;;;;;;1917654;75;21070;-65
2022/07/21 09:14:11;;;;;;;7.65;4.25;;;24.80;67.70;;;;;;1917687;74;21452;-67
2022/07/21 09:16:43;;;;;;;4.35;3.05;;;24.80;67.90;;;;;;1933269;74;21053;-65
2022/07/21 09:19:24;;;;;;;6.97;4.03;;;24.80;67.90;;;;;;1897962;74;21056;-65
2022/07/21 09:21:55;;;;;;;4.25;3.85;;;24.90;68.20;;;;;;1889999;76;21095;-61
2022/07/21 09:24:29;;;;;;;6.08;3.90;;;25.00;68.30;;;;;;1890207;76;21133;-60
2022/07/21 09:27:18;;;;;;;6.50;3.62;;;25.20;68.20;;;;;;1890042;76;21088;-64
2022/07/21 09:29:53;;;;;;;4.80;3.35;;;25.30;68.20;;;;;;1889972;76;21052;-63
2022/07/21 09:32:27;;;;;;;4.10;3.00;;;25.50;68.60;;;;;;1890082;76;21065;-63
2022/07/21 09:35:02;;;;;;;5.90;3.25;;;25.70;68.60;;;;;;1890062;76;21084;-59
2022/07/21 09:37:32;;;;;;;6.20;3.60;;;25.70;68.80;;;;;;1890211;76;21081;-64
2022/07/21 09:40:07;;;;;;;5.15;3.05;;;25.70;69.70;;;;;;1889913;76;21057;-64
2022/07/21 09:42:39;;;;;;;12.70;3.62;;;25.80;70.00;;;;;;1890006;76;21097;-61
2022/07/21 09:45:14;;;;;;;6.87;3.27;;;25.80;70.70;;;;;;1886323;76;21166;-64
2022/07/21 09:47:45;;;;;;;6.10;3.30;;;25.80;70.70;;;;;;1889523;76;21116;-61
2022/07/21 09:50:16;;;;;;;5.97;3.87;;;25.80;71.30;;;;;;1889412;76;21033;-67
2022/07/21 09:52:46;;;;;;;5.45;3.77;;;25.70;72.20;;;;;;1889621;76;21091;-64
2022/07/21 09:55:17;;;;;;;5.65;3.65;;;25.50;72.80;;;;;;1889504;76;21143;-62
2022/07/21 09:57:46;;;;;;;5.45;4.30;;;25.50;73.30;;;;;;1889377;76;21029;-63
2022/07/21 10:00:20;;;;;;;7.62;3.60;;;25.60;73.60;;;;;;1889489;76;21053;-66
2022/07/21 10:02:50;;;;;;;9.60;4.07;;;25.80;73.00;;;;;;1889640;76;21104;-64
2022/07/21 10:05:21;;;;;;;4.62;3.72;;;26.00;72.50;;;;;;1889331;76;21077;-66
2022/07/21 10:07:51;;;;;;;3.87;3.12;;;26.20;71.70;;;;;;1889357;76;21088;-66
2022/07/21 10:10:20;;;;;;;4.03;3.47;;;26.30;71.30;;;;;;1889468;76;21085;-60
2022/07/21 10:12:50;;;;;;;4.70;3.40;;;26.40;71.30;;;;;;1889183;76;21065;-64
2022/07/21 10:15:19;;;;;;;8.68;4.40;;;26.50;70.70;;;;;;1893031;74;21052;-63
2022/07/21 10:17:52;;;;;;;7.55;3.47;;;26.60;70.60;;;;;;1902449;75;21049;-65
2022/07/21 10:20:23;;;;;;;10.95;3.80;;;26.60;70.20;;;;;;1902263;75;21518;-65
2022/07/21 10:23:24;;;;;;;7.97;3.58;;;26.50;69.80;;;;;;1902185;75;21537;-65
2022/07/21 10:25:55;;;;;;;6.97;3.30;;;26.60;70.10;;;;;;1902432;75;21092;-63
2022/07/21 10:28:25;;;;;;;6.83;2.92;;;26.60;69.80;;;;;;1902078;75;21006;-64
2022/07/21 10:30:56;;;;;;;4.65;2.60;;;26.40;68.70;;;;;;1902313;75;21017;-64
2022/07/21 10:33:50;;;;;;;5.65;2.92;;;26.30;68.40;;;;;;1902269;75;21170;-63
2022/07/21 10:36:33;;;;;;;4.33;2.47;;;26.30;68.60;;;;;;1902269;75;21077;-68
2022/07/21 10:39:17;;;;;;;5.22;2.55;;;26.10;68.70;;;;;;1902544;75;21526;-64
2022/07/21 10:41:46;;;;;;;5.72;2.52;;;26.10;68.90;;;;;;1899312;75;21017;-61
2022/07/21 10:44:33;;;;;;;4.92;2.62;;;26.00;68.40;;;;;;1902355;75;21554;-64
2022/07/21 10:47:19;;;;;;;5.33;4.75;;;25.90;68.20;;;;;;1902313;75;21463;-65
2022/07/21 10:49:57;;;;;;;6.72;2.20;;;25.70;68.10;;;;;;1902085;75;21057;-64
2022/07/21 10:52:45;;;;;;;3.50;2.77;;;25.60;68.40;;;;;;1902223;75;21049;-62
2022/07/21 10:55:28;;;;;;;4.20;2.05;;;25.50;68.80;;;;;;1902153;75;21000;-66
2022/07/21 10:58:15;;;;;;;4.37;2.70;;;25.40;69.20;;;;;;1902482;75;21147;-62
2022/07/21 11:01:03;;;;;;;5.75;2.42;;;25.40;69.70;;;;;;1902271;75;21046;-64
2022/07/21 11:03:37;;;;;;;10.70;3.12;;;25.30;70.10;;;;;;1860825;75;21099;-61
2022/07/21 11:06:24;;;;;;;8.13;3.50;;;25.30;70.40;;;;;;1902178;75;21052;-68
2022/07/21 11:09:11;;;;;;;15.23;3.65;;;25.20;71.00;;;;;;1902379;75;21087;-61
2022/07/21 11:12:03;;;;;;;4.53;2.80;;;25.20;71.30;;;;;;1901996;75;21087;-62
2022/07/21 11:14:38;;;;;;;4.25;2.87;;;25.10;71.50;;;;;;1902255;75;21432;-64
2022/07/21 11:17:07;;;;;;;;;;;25.10;71.80;;;;;;1917298;74;21558;-62
2022/07/21 11:19:39;;;;;;;8.93;3.05;;;25.00;71.80;;;;;;1917193;75;20114;-67
2022/07/21 11:22:29;;;;;;;6.08;4.08;;;24.90;71.70;;;;;;1917314;75;21057;-65
2022/07/21 11:25:03;;;;;;;6.00;3.12;;;24.90;72.30;;;;;;1917416;75;21115;-64
2022/07/21 11:27:35;;;;;;;3.87;2.37;;;24.80;72.70;;;;;;1917351;75;21476;-61
2022/07/21 11:30:07;;;;;;;4.25;3.00;;;24.80;72.40;;;;;;1923400;73;21183;-63
2022/07/21 11:32:37;;;;;;;10.03;3.25;;;24.80;72.90;;;;;;1962015;73;21140;-64
2022/07/21 11:35:08;;;;;;;7.22;2.92;;;25.00;73.00;;;;;;1961899;73;21066;-64
2022/07/21 11:37:42;;;;;;;4.15;3.05;;;25.00;72.90;;;;;;1962101;73;21426;-61
2022/07/21 11:40:16;;;;;;;4.45;3.00;;;25.10;72.50;;;;;;1962115;73;21084;-62
2022/07/21 11:42:47;;;;;;;3.90;3.02;;;25.20;72.60;;;;;;1962081;73;21069;-66
2022/07/21 11:45:17;;;;;;;7.45;3.40;;;25.20;72.60;;;;;;1962188;73;21011;-65
2022/07/21 11:47:51;;;;;;;9.28;3.67;;;25.20;72.70;;;;;;1961905;73;21074;-63
2022/07/21 11:50:21;;;;;;;4.62;3.87;;;25.30;72.70;;;;;;1962135;73;21066;-64
2022/07/21 11:52:51;;;;;;;6.03;4.05;;;25.30;72.80;;;;;;1961702;73;21073;-64
2022/07/21 11:55:21;;;;;;;7.05;4.12;;;25.20;73.00;;;;;;1961735;73;21102;-65
2022/07/21 11:57:50;;;;;;;12.10;4.20;;;25.20;73.30;;;;;;1961971;73;21077;-71
2022/07/21 12:00:20;;;;;;;8.38;4.05;;;25.20;73.40;;;;;;1962184;73;21023;-66
2022/07/21 12:02:49;;;;;;;6.45;3.45;;;25.10;73.40;;;;;;1961704;73;21007;-65
2022/07/21 12:05:19;;;;;;;7.40;3.58;;;25.20;73.50;;;;;;1962029;73;21132;-62
2022/07/21 12:07:49;;;;;;;4.85;3.52;;;25.20;73.20;;;;;;1962025;73;21152;-61
2022/07/21 12:10:29;;;;;;;7.58;4.95;;;25.20;73.10;;;;;;1961944;73;21050;-64
2022/07/21 12:13:03;;;;;;;15.20;4.35;;;25.20;73.30;;;;;;1962090;73;21062;-65
2022/07/21 12:15:35;;;;;;;4.75;3.40;;;25.30;73.10;;;;;;1962141;73;20987;-68
2022/07/21 12:18:25;;;;;;;5.85;3.27;;;25.40;72.90;;;;;;1971353;73;21063;-65
2022/07/21 12:21:06;;;;;;;4.08;3.22;;;25.50;72.50;;;;;;1972206;73;21449;-61
2022/07/21 12:23:36;;;;;;;3.55;2.92;;;25.70;71.90;;;;;;1972636;73;21136;-69
2022/07/21 12:26:06;;;;;;;6.65;3.15;;;25.80;71.60;;;;;;1972840;73;21073;-66
2022/07/21 12:28:52;;;;;;;4.40;3.08;;;26.00;71.10;;;;;;1972852;73;21010;-66
2022/07/21 12:31:23;;;;;;;5.08;3.50;;;26.00;70.30;;;;;;1972861;73;21092;-66
2022/07/21 12:33:55;;;;;;;7.40;3.40;;;26.10;70.00;;;;;;1972937;73;21018;-66
2022/07/21 12:36:26;;;;;;;6.28;3.12;;;26.00;69.70;;;;;;1973047;73;21023;-66
2022/07/21 12:38:55;;;;;;;5.47;3.55;;;26.00;70.00;;;;;;1972855;73;21019;-66
2022/07/21 12:41:25;;;;;;;5.03;3.92;;;26.10;69.40;;;;;;1972839;73;21030;-66
2022/07/21 12:44:01;;;;;;;4.83;2.83;;;26.10;69.00;;;;;;1972895;73;21061;-66
2022/07/21 12:46:35;;;;;;;4.10;3.50;;;26.00;68.80;;;;;;1972792;73;21027;-67
2022/07/21 12:49:13;;;;;;;5.50;4.08;;;25.90;68.90;;;;;;1972941;73;20990;-66
2022/07/21 12:51:39;;;;;;;6.58;4.40;;;25.90;69.70;;;;;;1971814;73;21441;-66
2022/07/21 12:54:09;;;;;;;10.78;4.72;;;25.90;70.20;;;;;;1972889;73;21042;-66
2022/07/21 12:56:38;;;;;;;8.23;3.98;;;25.80;70.10;;;;;;1972965;73;21045;-66
2022/07/21 12:59:08;;;;;;;4.65;3.08;;;25.80;70.60;;;;;;1972896;73;21080;-66
2022/07/21 13:01:38;;;;;;;10.53;4.17;;;25.90;70.60;;;;;;1972774;73;21405;-67
2022/07/21 13:04:07;;;;;;;6.00;3.83;;;26.00;70.40;;;;;;1972811;73;21143;-66
2022/07/21 13:06:37;;;;;;;3.87;3.47;;;26.10;70.40;;;;;;1972900;73;21014;-66
2022/07/21 13:09:06;;;;;;;3.25;2.90;;;26.20;69.90;;;;;;1972757;73;21014;-67
2022/07/21 13:11:36;;;;;;;5.90;3.25;;;26.20;69.50;;;;;;1972959;73;20998;-66
2022/07/21 13:14:05;;;;;;;5.42;4.05;;;26.20;69.40;;;;;;1972743;73;21072;-66
2022/07/21 13:16:35;;;;;;;5.55;4.05;;;26.30;69.00;;;;;;1972147;73;21062;-66
2022/07/21 13:19:04;;;;;;;8.43;4.42;;;26.20;68.70;;;;;;1962815;73;21011;-66
2022/07/21 13:21:34;;;;;;;6.55;4.58;;;26.20;68.70;;;;;;1962865;73;21031;-67
2022/07/21 13:24:03;;;;;;;6.00;4.35;;;26.20;68.80;;;;;;1962922;73;21039;-67
2022/07/21 13:26:33;;;;;;;10.80;4.70;;;26.10;68.90;;;;;;1962794;73;21011;-67
2022/07/21 13:29:05;;;;;;;7.05;4.28;;;26.10;69.10;;;;;;1962813;73;21023;-67
2022/07/21 13:31:36;;;;;;;8.88;5.45;;;26.10;69.10;;;;;;1962922;73;21445;-67
2022/07/21 13:34:07;;;;;;;7.65;5.03;;;26.10;69.00;;;;;;1962893;73;21456;-67
2022/07/21 13:36:37;;;;;;;7.42;4.65;;;26.10;69.10;;;;;;1962801;73;21054;-66
2022/07/21 13:39:07;;;;;;;7.15;5.00;;;26.20;68.90;;;;;;1962853;73;21085;-66
2022/07/21 13:41:37;;;;;;;13.18;5.10;;;26.20;68.80;;;;;;1962892;73;21112;-66
2022/07/21 13:44:07;;;;;;;8.88;5.03;;;26.20;68.60;;;;;;1962818;73;21081;-66
2022/07/21 13:46:36;;;;;;;6.12;4.83;;;26.20;68.60;;;;;;1962918;73;21100;-67
2022/07/21 13:49:05;;;;;;;5.47;4.90;;;26.20;68.50;;;;;;1962840;73;21003;-67
2022/07/21 13:51:35;;;;;;;6.83;4.78;;;26.30;68.30;;;;;;1962845;73;21026;-67
2022/07/21 13:54:04;;;;;;;6.67;4.40;;;26.30;68.10;;;;;;1962899;73;21023;-67
2022/07/21 13:56:34;;;;;;;7.75;4.90;;;26.40;68.20;;;;;;1962949;73;21043;-67
2022/07/21 13:59:03;;;;;;;7.85;4.65;;;26.40;68.00;;;;;;1962966;73;21070;-67
2022/07/21 14:01:40;;;;;;;4.37;3.98;;;26.60;67.10;;;;;;1962793;73;21090;-67
2022/07/21 14:04:10;;;;;;;5.17;4.22;;;26.70;65.90;;;;;;1917114;73;21452;-65
2022/07/21 14:06:40;;;;;;;9.43;4.05;;;26.70;65.40;;;;;;1919044;75;21022;-65
2022/07/21 14:09:09;;;;;;;7.08;3.70;;;26.80;65.20;;;;;;1918977;75;20985;-65
2022/07/21 14:11:38;;;;;;;6.03;3.72;;;26.90;64.80;;;;;;1919055;75;21081;-65
2022/07/21 14:14:07;;;;;;;5.58;3.58;;;26.90;64.30;;;;;;1919082;75;21018;-65
2022/07/21 14:16:37;;;;;;;4.58;3.87;;;26.90;64.30;;;;;;1919099;75;21440;-65
2022/07/21 14:19:07;;;;;;;4.78;3.75;;;26.80;63.40;;;;;;1919134;74;21022;-65
2022/07/21 14:21:36;;;;;;;4.70;3.62;;;26.80;62.70;;;;;;1919132;75;21014;-65
2022/07/21 14:26:53;;;;;;;5.05;3.75;;;26.70;62.30;;;;;;1919222;75;21099;-66
2022/07/21 14:29:22;;;;;;;6.67;3.80;;;26.70;62.60;;;;;;1919076;75;21054;-66
2022/07/21 14:31:52;;;;;;;7.22;4.20;;;26.60;63.00;;;;;;1919239;75;21099;-66
2022/07/21 14:34:21;;;;;;;7.50;5.40;;;26.40;63.00;;;;;;1919129;75;21022;-66
2022/07/21 14:36:51;;;;;;;4.28;3.52;;;26.40;62.60;;;;;;1919175;75;21034;-66
2022/07/21 14:39:20;;;;;;;10.65;4.20;;;26.30;62.80;;;;;;1919190;75;21029;-66
2022/07/21 14:41:50;;;;;;;6.08;4.03;;;26.40;62.90;;;;;;1918974;75;21038;-66
2022/07/21 14:44:20;;;;;;;6.55;3.20;;;26.50;62.30;;;;;;1919091;75;21046;-66
2022/07/21 14:46:49;;;;;;;6.67;3.05;;;26.50;61.80;;;;;;1919075;74;21108;-66